Time;durP1;ratioP1;P1;durP2;ratioP2;P2;SDS_P1;SDS_P2;PMS_P1;PMS_P2;Temp;Humidity;BMP_temperature;BMP_pressure;BME280_temperature;BME280_humidity;BME280_pressure;Samples;Min_cycle;Max_cycle;Signal;HPM_P1;HPM_P2
2024/03/05 00:01:48;;;;;;;114.15;52.08;;;;;;;8.10;100.00;100609.44;5086709;28;20104;-85
2024/03/05 00:04:18;;;;;;;121.50;49.15;;;;;;;8.10;100.00;100606.81;5096903;28;20047;-89
2024/03/05 00:06:53;;;;;;;116.85;51.00;;;;;;;8.11;100.00;100605.09;5085171;28;20127;-85
2024/03/05 00:09:21;;;;;;;124.00;53.20;;;;;;;8.05;100.00;100605.94;5089102;28;20405;-89
2024/03/05 00:11:48;;;;;;;117.18;51.50;;;;;;;8.05;100.00;100611.16;5075028;28;20571;-88
2024/03/05 00:14:16;;;;;;;112.38;49.92;;;;;;;8.08;100.00;100605.09;5078823;28;20062;-88
2024/03/05 00:16:43;;;;;;;124.28;51.28;;;;;;;8.04;100.00;100608.56;5067841;28;20043;-85
2024/03/05 00:19:13;;;;;;;114.18;47.90;;;;;;;8.06;100.00;100604.22;5065954;28;20058;-85
2024/03/05 00:21:42;;;;;;;125.40;51.67;;;;;;;8.10;100.00;100608.56;5085727;28;20132;-86
2024/03/05 00:24:09;;;;;;;123.45;49.55;;;;;;;8.12;100.00;100612.03;5074934;28;20067;-88
2024/03/05 00:26:39;;;;;;;106.90;46.70;;;;;;;8.11;100.00;100611.19;5096203;28;20240;-89
2024/03/05 00:29:10;;;;;;;105.97;49.15;;;;;;;8.11;100.00;100612.94;5088752;28;20566;-87
2024/03/05 00:31:41;;;;;;;128.63;52.97;;;;;;;8.11;100.00;100613.78;5077499;28;20501;-88
2024/03/05 00:34:11;;;;;;;118.05;50.72;;;;;;;8.11;100.00;100610.31;5069699;28;20051;-86
2024/03/05 00:36:42;;;;;;;113.43;51.40;;;;;;;8.13;100.00;100618.13;5086303;28;20160;-86
2024/03/05 00:39:16;;;;;;;109.95;48.08;;;;;;;8.13;100.00;100618.13;5077578;28;20044;-85
2024/03/05 00:41:44;;;;;;;109.70;48.63;;;;;;;8.10;100.00;100621.59;5065422;28;20037;-85
2024/03/05 00:44:16;;;;;;;114.70;47.20;;;;;;;8.11;100.00;100621.59;5070269;28;20041;-87
2024/03/05 00:46:52;;;;;;;112.60;51.67;;;;;;;8.14;100.00;100617.28;5076849;28;20479;-85
2024/03/05 00:49:28;;;;;;;117.15;50.08;;;;;;;8.15;100.00;100614.66;5068453;28;20040;-86
2024/03/05 00:51:56;;;;;;;111.25;48.05;;;;;;;8.17;100.00;100612.03;5056567;28;20044;-84
2024/03/05 00:54:31;;;;;;;125.35;50.70;;;;;;;8.11;100.00;100611.19;5059308;28;20096;-87
2024/03/05 00:56:59;;;;;;;110.13;46.72;;;;;;;8.11;100.00;100616.38;5068004;28;20052;-86
2024/03/05 01:03:17;;;;;;;116.88;50.00;;;;;;;8.17;100.00;100612.03;5077966;28;20496;-87
2024/03/05 01:06:26;;;;;;;118.95;48.33;;;;;;;8.21;100.00;100617.28;5072874;28;20963;-87
2024/03/05 01:11:31;;;;;;;103.75;50.40;;;;;;;8.19;100.00;100621.59;5203387;23;20063;-88
2024/03/05 01:14:01;;;;;;;112.80;46.33;;;;;;;8.23;100.00;100615.53;5041020;28;20049;-89
2024/03/05 01:16:29;;;;;;;106.55;45.15;;;;;;;8.24;100.00;100616.41;5026903;28;20466;-87
2024/03/05 01:19:01;;;;;;;104.35;44.80;;;;;;;8.27;100.00;100614.66;5041955;28;20041;-87
2024/03/05 01:21:28;;;;;;;110.47;49.00;;;;;;;8.27;100.00;100609.44;5027283;28;20059;-87
2024/03/05 01:23:56;;;;;;;120.72;51.45;;;;;;;8.23;100.00;100610.31;5050616;28;20055;-91
2024/03/05 01:26:23;;;;;;;121.32;50.92;;;;;;;8.11;100.00;100624.22;5056982;28;20486;-92
2024/03/05 01:28:49;;;;;;;109.93;50.13;;;;;;;8.18;100.00;100609.44;5041214;28;20045;-89
2024/03/05 01:31:18;;;;;;;124.65;55.33;;;;;;;8.18;100.00;100611.19;5037958;28;20080;-86
2024/03/05 01:33:50;;;;;;;110.32;46.47;;;;;;;8.19;100.00;100615.53;5019006;28;20283;-87
2024/03/05 01:36:19;;;;;;;109.55;50.88;;;;;;;8.19;100.00;100619.00;5037015;28;20049;-86
2024/03/05 01:38:48;;;;;;;108.80;43.58;;;;;;;8.20;100.00;100617.25;5036809;28;20032;-88
2024/03/05 01:41:18;;;;;;;115.38;50.05;;;;;;;8.21;100.00;100614.66;5069624;28;20041;-88
2024/03/05 01:43:48;;;;;;;112.78;48.72;;;;;;;8.20;100.00;100612.94;5023682;28;20137;-86
2024/03/05 01:46:15;;;;;;;114.43;51.22;;;;;;;8.14;100.00;100614.66;5149870;22;20024;-88
2024/03/05 01:48:45;;;;;;;116.47;52.33;;;;;;;8.15;100.00;100616.38;5041803;28;20060;-85
2024/03/05 01:51:17;;;;;;;127.85;54.03;;;;;;;8.16;100.00;100615.53;5043488;28;20049;-88
2024/03/05 01:53:46;;;;;;;119.80;51.20;;;;;;;8.11;100.00;100612.94;5046083;28;20053;-88
2024/03/05 01:56:17;;;;;;;122.32;54.58;;;;;;;8.09;100.00;100618.13;5234325;23;20045;-87
2024/03/05 01:58:47;;;;;;;116.20;51.92;;;;;;;8.11;100.00;100619.00;5044853;28;20033;-86
2024/03/05 02:01:15;;;;;;;117.80;49.80;;;;;;;8.14;100.00;100612.91;5050906;28;20115;-87
2024/03/05 02:03:42;;;;;;;123.97;52.63;;;;;;;8.19;100.00;100610.31;5032680;28;20135;-87
2024/03/05 02:06:11;;;;;;;120.80;53.78;;;;;;;8.09;100.00;100617.25;5028169;28;20139;-86
2024/03/05 02:08:41;;;;;;;109.05;51.58;;;;;;;7.98;100.00;100619.88;5012882;28;20057;-83
2024/03/05 02:11:18;;;;;;;113.97;51.40;;;;;;;8.00;100.00;100617.25;5033225;28;20049;-85
2024/03/05 02:13:50;;;;;;;117.03;47.10;;;;;;;8.07;100.00;100614.66;5041936;28;20463;-85
2024/03/05 02:16:18;;;;;;;114.95;49.22;;;;;;;8.12;100.00;100606.81;5150739;23;20547;-85
2024/03/05 02:18:46;;;;;;;120.03;56.45;;;;;;;8.09;100.00;100601.63;5046507;28;20058;-84
2024/03/05 02:21:24;;;;;;;124.28;53.25;;;;;;;7.94;100.00;100608.56;5027162;28;20117;-85
2024/03/05 02:23:51;;;;;;;130.60;53.70;;;;;;;7.86;100.00;100602.47;4997205;28;20049;-86
2024/03/05 02:26:29;;;;;;;123.95;51.60;;;;;;;7.94;100.00;100615.53;5009076;28;20060;-87
2024/03/05 02:29:02;;;;;;;101.13;46.42;;;;;;;7.99;100.00;100608.56;5010038;28;20049;-86
2024/03/05 02:34:12;;;;;;;106.82;46.90;;;;;;;7.99;100.00;100611.19;5027290;28;19960;-87
2024/03/05 02:36:45;;;;;;;113.22;48.78;;;;;;;7.90;100.00;100609.44;5017078;28;20049;-88
2024/03/05 02:39:12;;;;;;;106.80;48.85;;;;;;;7.93;100.00;100617.25;5014829;28;20050;-91
2024/03/05 02:41:40;;;;;;;116.45;50.20;;;;;;;8.01;100.00;100627.69;5033191;28;20053;-87
2024/03/05 02:44:07;;;;;;;102.28;47.28;;;;;;;8.02;100.00;100620.75;5026404;28;20052;-86
2024/03/05 02:46:40;;;;;;;102.53;46.40;;;;;;;8.03;100.00;100620.75;5035989;28;20045;-92
2024/03/05 02:49:17;;;;;;;103.85;45.90;;;;;;;8.01;100.00;100619.00;5033174;28;20064;-93
2024/03/05 02:51:44;;;;;;;95.97;45.42;;;;;;;8.01;100.00;100619.84;5050294;28;20045;-91
2024/03/05 02:54:13;;;;;;;97.50;48.28;;;;;;;8.07;100.00;100622.47;5031645;28;20034;-90
2024/03/05 02:56:40;;;;;;;95.20;43.60;;;;;;;8.04;100.00;100616.38;5046692;28;20048;-90
2024/03/05 02:59:08;;;;;;;96.90;44.70;;;;;;;8.09;100.00;100622.47;5005007;28;20037;-87
2024/03/05 03:04:19;;;;;;;91.10;45.05;;;;;;;8.07;100.00;100618.97;5026799;28;20096;-86
2024/03/05 03:06:47;;;;;;;89.32;44.83;;;;;;;7.99;100.00;100619.00;5018672;28;20045;-89
2024/03/05 03:09:15;;;;;;;99.38;45.60;;;;;;;8.07;100.00;100621.59;5019776;28;20045;-89
2024/03/05 03:11:45;;;;;;;88.15;44.03;;;;;;;8.01;100.00;100619.84;5014261;28;20042;-90
2024/03/05 03:14:12;;;;;;;94.10;42.95;;;;;;;7.98;100.00;100618.97;5028165;28;20092;-87
2024/03/05 03:16:43;;;;;;;91.70;42.95;;;;;;;7.99;100.00;100621.59;5011234;28;20065;-87
2024/03/05 03:19:15;;;;;;;93.80;43.83;;;;;;;8.01;100.00;100617.25;5001395;28;20133;-86
2024/03/05 03:21:45;;;;;;;93.28;41.85;;;;;;;8.00;100.00;100620.72;5011449;28;20053;-87
2024/03/05 03:24:13;;;;;;;75.80;38.40;;;;;;;7.97;100.00;100622.47;5006054;28;20489;-88
2024/03/05 03:26:40;;;;;;;89.35;40.55;;;;;;;8.02;100.00;100626.81;5026178;28;20050;-90
2024/03/05 03:29:11;;;;;;;80.10;40.42;;;;;;;8.01;100.00;100619.84;5043178;28;20022;-90
2024/03/05 03:31:45;;;;;;;86.35;40.47;;;;;;;8.02;100.00;100623.34;5047570;28;20095;-89
2024/03/05 03:34:16;;;;;;;74.38;38.88;;;;;;;7.95;100.00;100623.34;5017758;28;20100;-87
2024/03/05 03:36:50;;;;;;;81.32;38.22;;;;;;;8.01;100.00;100621.59;5031806;28;20061;-86
2024/03/05 03:42:17;;;;;;;66.78;36.03;;;;;;;7.92;100.00;100625.06;5172012;22;20053;-90
2024/03/05 03:44:55;;;;;;;79.53;38.58;;;;;;;7.94;100.00;100629.41;5063419;28;20033;-92
2024/03/05 03:47:37;;;;;;;68.20;35.40;;;;;;;7.91;100.00;100633.75;5045133;28;20029;-88
2024/03/05 03:50:07;;;;;;;74.15;37.70;;;;;;;7.83;100.00;100622.44;5043084;28;20056;-86
2024/03/05 03:52:35;;;;;;;75.53;37.67;;;;;;;7.83;100.00;100628.50;5035643;28;20080;-86
2024/03/05 03:55:05;;;;;;;79.47;37.85;;;;;;;7.83;100.00;100625.06;5049375;28;20113;-90
2024/03/05 03:57:39;;;;;;;83.00;41.03;;;;;;;7.71;100.00;100618.06;5034263;28;20049;-86
2024/03/05 04:00:07;;;;;;;77.85;40.03;;;;;;;7.64;100.00;100621.53;5027629;28;20038;-87
2024/03/05 04:02:40;;;;;;;80.68;39.75;;;;;;;7.59;100.00;100619.78;5017792;28;20049;-87
2024/03/05 04:05:09;;;;;;;81.85;39.13;;;;;;;7.64;100.00;100622.41;5007693;28;20065;-86
2024/03/05 04:07:39;;;;;;;77.15;38.05;;;;;;;7.69;100.00;100628.50;5017694;28;20052;-87
2024/03/05 04:10:10;;;;;;;83.13;41.22;;;;;;;7.69;100.00;100631.09;5040762;28;20072;-86
2024/03/05 04:12:40;;;;;;;79.10;40.03;;;;;;;7.71;100.00;100637.19;5020134;28;20072;-87
2024/03/05 04:15:08;;;;;;;83.63;42.80;;;;;;;7.72;100.00;100638.91;5033888;28;20041;-87
2024/03/05 04:17:37;;;;;;;93.60;41.88;;;;;;;7.70;100.00;100643.25;5039953;28;20049;-87
2024/03/05 04:20:08;;;;;;;81.72;41.42;;;;;;;7.69;100.00;100638.03;5041029;28;20099;-87
2024/03/05 04:22:40;;;;;;;82.90;39.63;;;;;;;7.64;100.00;100639.75;5028099;28;20053;-86
2024/03/05 04:25:09;;;;;;;83.25;39.67;;;;;;;7.60;100.00;100644.09;5005270;28;20491;-87
2024/03/05 04:27:41;;;;;;;85.72;40.55;;;;;;;7.54;100.00;100644.09;5019129;28;20055;-87
2024/03/05 04:30:12;;;;;;;75.22;37.25;;;;;;;7.58;100.00;100643.22;5001551;28;20082;-86
2024/03/05 04:32:49;;;;;;;86.28;42.78;;;;;;;7.56;100.00;100642.34;5019182;28;20083;-86
2024/03/05 04:35:17;;;;;;;86.50;43.55;;;;;;;7.57;100.00;100641.47;5043498;28;20079;-88
2024/03/05 04:37:50;;;;;;;90.65;42.00;;;;;;;7.57;100.00;100651.91;5044416;28;20050;-90
2024/03/05 04:46:11;;;;;;;68.43;36.65;;;;;;;7.42;100.00;100655.34;5025086;28;20132;-88
2024/03/05 04:48:42;;;;;;;66.70;35.58;;;;;;;7.34;100.00;100647.47;5017057;28;20455;-87
2024/03/05 04:51:24;;;;;;;73.50;36.38;;;;;;;7.38;100.00;100654.44;5020603;28;20061;-88
2024/03/05 04:53:57;;;;;;;68.55;32.17;;;;;;;7.27;100.00;100648.31;5015280;28;20045;-90
2024/03/05 04:56:29;;;;;;;52.00;31.38;;;;;;;7.25;100.00;100653.50;5033171;28;20056;-88
2024/03/05 04:59:19;;;;;;;51.38;26.25;;;;;;;7.16;100.00;100663.88;5024056;28;20046;-89
2024/03/05 05:04:49;;;;;;;46.60;26.33;;;;;;;6.99;100.00;100658.59;5058322;28;20046;-94
2024/03/05 05:07:28;;;;;;;45.00;25.63;;;;;;;7.01;100.00;100654.25;5025088;28;20033;-91
2024/03/05 05:10:01;;;;;;;49.47;25.40;;;;;;;7.04;100.00;100650.78;5036327;28;20045;-89
2024/03/05 05:18:05;;;;;;;46.22;25.52;;;;;;;6.90;100.00;100646.38;5049858;22;20061;-86
2024/03/05 05:20:35;;;;;;;42.40;24.48;;;;;;;6.98;100.00;100653.38;5003144;28;20041;-87
2024/03/05 05:23:03;;;;;;;49.33;27.13;;;;;;;6.86;100.00;100662.00;5001491;28;20032;-88
2024/03/05 05:25:33;;;;;;;52.83;26.10;;;;;;;6.77;100.00;100665.38;4986609;28;20044;-86
2024/03/05 05:28:00;;;;;;;47.25;25.60;;;;;;;6.82;100.00;100665.41;4980701;28;20065;-84
2024/03/05 05:30:34;;;;;;;47.47;25.15;;;;;;;6.79;100.00;100658.44;4991928;28;20050;-87
2024/03/05 05:33:02;;;;;;;49.30;25.67;;;;;;;6.85;100.00;100658.50;5005199;28;20453;-85
2024/03/05 05:35:30;;;;;;;46.50;25.42;;;;;;;6.82;100.00;100668.91;4996191;28;20117;-88
2024/03/05 05:38:08;;;;;;;52.47;27.02;;;;;;;6.85;100.00;100670.66;4990199;28;20120;-85
2024/03/05 05:40:36;;;;;;;44.80;24.40;;;;;;;6.76;100.00;100669.69;5002166;28;20121;-85
2024/03/05 05:43:08;;;;;;;43.67;25.92;;;;;;;6.78;100.00;100670.59;4999449;28;20049;-88
2024/03/05 05:45:37;;;;;;;42.88;25.17;;;;;;;6.72;100.00;100667.94;4988608;28;20046;-87
2024/03/05 05:48:05;;;;;;;42.63;24.58;;;;;;;6.68;100.00;100663.59;4983132;28;20045;-86
2024/03/05 05:50:35;;;;;;;40.90;21.95;;;;;;;6.68;100.00;100674.00;4995006;28;20045;-83
2024/03/05 05:53:01;;;;;;;49.85;23.30;;;;;;;6.63;100.00;100667.88;5005583;28;20038;-86
2024/03/05 05:55:28;;;;;;;42.58;22.92;;;;;;;6.59;100.00;100672.19;4974151;28;20050;-86
2024/03/05 05:57:56;;;;;;;44.95;23.75;;;;;;;6.54;100.00;100671.28;4977537;28;20627;-84
2024/03/05 06:00:32;;;;;;;43.80;24.63;;;;;;;6.46;100.00;100676.41;4978237;28;20469;-86
2024/03/05 06:03:00;;;;;;;35.95;22.25;;;;;;;6.49;100.00;100682.50;4976106;28;20132;-88
2024/03/05 06:05:34;;;;;;;42.50;23.42;;;;;;;6.52;100.00;100679.91;4977715;28;20623;-85
2024/03/05 06:08:01;;;;;;;37.45;19.70;;;;;;;6.43;100.00;100676.41;4980131;28;20054;-86
2024/03/05 06:10:29;;;;;;;37.15;20.48;;;;;;;6.37;100.00;100686.75;4978902;28;20046;-86
2024/03/05 06:12:56;;;;;;;35.85;20.75;;;;;;;6.37;100.00;100684.13;4991784;28;20521;-84
2024/03/05 06:15:27;;;;;;;39.13;20.98;;;;;;;6.41;100.00;100696.34;4961900;28;20046;-85
2024/03/05 06:17:55;;;;;;;33.17;19.65;;;;;;;6.26;100.00;100689.25;4974397;28;20726;-85
2024/03/05 06:20:23;;;;;;;39.47;20.75;;;;;;;6.20;100.00;100702.19;5008074;28;20042;-85
2024/03/05 06:22:53;;;;;;;37.13;21.88;;;;;;;6.10;100.00;100698.63;4982986;28;20409;-86
2024/03/05 06:25:21;;;;;;;34.50;19.85;;;;;;;6.00;100.00;100709.78;4976904;28;20073;-85
2024/03/05 06:27:48;;;;;;;31.42;20.85;;;;;;;5.89;100.00;100712.25;4983120;28;20042;-87
2024/03/05 06:30:17;;;;;;;38.55;21.52;;;;;;;5.90;100.00;100721.75;4964448;28;20764;-85
2024/03/05 06:32:47;;;;;;;40.63;24.23;;;;;;;5.70;100.00;100718.94;4965956;28;20061;-86
2024/03/05 06:35:22;;;;;;;36.20;22.33;;;;;;;5.55;100.00;100723.94;4958156;28;20154;-85
2024/03/05 06:37:53;;;;;;;36.28;23.08;;;;;;;5.56;100.00;100721.34;4998028;28;20145;-88
2024/03/05 06:40:22;;;;;;;44.40;22.02;;;;;;;5.54;100.00;100725.69;4984610;28;20043;-85
2024/03/05 06:43:15;;;;;;;38.80;23.42;;;;;;;5.50;100.00;100729.09;4968500;28;20090;-84
2024/03/05 06:45:46;;;;;;;47.17;25.10;;;;;;;5.54;100.00;100735.19;5007712;28;20512;-88
2024/03/05 06:48:22;;;;;;;39.35;24.17;;;;;;;5.55;100.00;100742.97;4967988;28;20104;-86
2024/03/05 06:50:57;;;;;;;42.05;24.08;;;;;;;5.58;100.00;100740.44;4968671;28;20100;-87
2024/03/05 06:58:59;;;;;;;39.78;22.45;;;;;;;5.62;100.00;100750.00;5009155;28;20046;-88
2024/03/05 07:01:34;;;;;;;41.92;25.30;;;;;;;5.66;100.00;100744.84;4984005;28;20039;-84
2024/03/05 07:04:06;;;;;;;46.38;24.58;;;;;;;5.69;100.00;100745.75;4984656;28;20647;-84
2024/03/05 07:06:37;;;;;;;47.33;25.05;;;;;;;5.75;100.00;100744.97;4993342;28;20042;-85
2024/03/05 07:09:04;;;;;;;40.03;25.33;;;;;;;5.73;100.00;100744.09;4990496;28;20469;-84
2024/03/05 07:11:31;;;;;;;43.70;24.30;;;;;;;5.74;100.00;100746.69;4969498;28;20112;-87
2024/03/05 07:14:08;;;;;;;51.08;24.02;;;;;;;5.73;100.00;100749.28;4986964;28;20540;-87
2024/03/05 07:16:35;;;;;;;42.08;24.67;;;;;;;5.71;100.00;100745.78;4979646;28;20084;-85
2024/03/05 07:19:06;;;;;;;45.42;25.92;;;;;;;5.74;100.00;100748.44;4982102;28;20057;-87
2024/03/05 07:21:33;;;;;;;39.75;23.40;;;;;;;5.68;100.00;100756.13;4986933;28;20053;-87
2024/03/05 07:24:02;;;;;;;40.10;23.13;;;;;;;5.75;100.00;100751.03;4978750;28;20139;-88
2024/03/05 07:26:34;;;;;;;46.55;22.95;;;;;;;5.75;100.00;100750.16;4989438;28;20030;-85
2024/03/05 07:29:16;;;;;;;35.55;21.38;;;;;;;5.75;100.00;100747.56;4981317;28;20042;-87
2024/03/05 07:31:45;;;;;;;37.67;23.25;;;;;;;5.75;100.00;100744.97;4983004;28;20050;-87
2024/03/05 07:34:12;;;;;;;42.72;24.13;;;;;;;5.77;100.00;100751.06;4983378;28;20081;-85
2024/03/05 07:36:43;;;;;;;36.00;21.33;;;;;;;5.77;100.00;100751.91;4968147;28;20056;-88
2024/03/05 07:39:16;;;;;;;46.05;24.45;;;;;;;5.76;100.00;100754.50;4980774;28;20041;-86
2024/03/05 07:44:39;;;;;;;37.90;23.13;;;;;;;5.78;100.00;100753.66;4984680;28;19922;-87
2024/03/05 07:47:08;;;;;;;43.08;24.27;;;;;;;5.63;100.00;100748.28;4987257;28;20098;-86
2024/03/05 07:49:46;;;;;;;37.00;22.27;;;;;;;5.60;100.00;100753.44;4987951;28;20069;-87
2024/03/05 07:52:12;;;;;;;41.38;21.40;;;;;;;5.70;100.00;100757.03;4992145;28;20065;-85
2024/03/05 07:54:41;;;;;;;41.05;21.40;;;;;;;5.61;100.00;100757.78;4995185;28;20060;-83
2024/03/05 07:57:10;;;;;;;40.63;22.88;;;;;;;5.73;100.00;100760.53;4988351;28;20078;-84
2024/03/05 07:59:46;;;;;;;41.67;24.25;;;;;;;5.71;100.00;100758.75;4976692;28;20042;-85
2024/03/05 08:02:13;;;;;;;36.33;21.77;;;;;;;5.74;100.00;100770.06;4994534;28;20478;-85
2024/03/05 08:04:41;;;;;;;41.38;22.60;;;;;;;5.72;100.00;100765.72;4969800;28;20079;-82
2024/03/05 08:07:11;;;;;;;41.72;23.30;;;;;;;5.70;100.00;100762.25;4987461;28;20034;-84
2024/03/05 08:09:40;;;;;;;36.00;22.20;;;;;;;5.75;100.00;100765.72;5004064;28;20098;-86
2024/03/05 08:12:07;;;;;;;44.70;24.50;;;;;;;5.71;100.00;100761.34;4970796;28;20039;-86
2024/03/05 08:14:34;;;;;;;37.63;24.48;;;;;;;5.71;100.00;100758.75;4985465;28;20049;-86
2024/03/05 08:17:03;;;;;;;41.50;23.35;;;;;;;5.74;100.00;100764.00;4982377;28;20054;-85
2024/03/05 08:19:30;;;;;;;39.78;23.45;;;;;;;5.69;100.00;100766.53;4988057;28;20054;-86
2024/03/05 08:21:56;;;;;;;39.42;23.40;;;;;;;5.63;100.00;100767.34;4962303;28;20054;-85
2024/03/05 08:24:23;;;;;;;45.10;25.45;;;;;;;5.59;100.00;100768.16;4995876;28;20054;-85
2024/03/05 08:26:51;;;;;;;35.05;21.67;;;;;;;5.55;100.00;100762.88;4982179;28;20066;-84
2024/03/05 08:29:18;;;;;;;38.97;23.85;;;;;;;5.61;100.00;100763.84;4985909;28;20360;-86
2024/03/05 08:31:47;;;;;;;45.40;24.13;;;;;;;5.64;100.00;100768.22;4972813;28;20038;-84
2024/03/05 08:34:15;;;;;;;41.40;22.88;;;;;;;5.75;100.00;100770.94;5002876;28;20042;-83
2024/03/05 08:36:42;;;;;;;40.85;23.17;;;;;;;5.66;100.00;100769.13;5002280;28;20046;-87
2024/03/05 08:39:19;;;;;;;43.40;22.95;;;;;;;5.63;100.00;100769.94;4984465;28;20030;-87
2024/03/05 08:41:47;;;;;;;33.75;21.40;;;;;;;5.66;100.00;100766.50;4985470;28;20062;-87
2024/03/05 08:44:15;;;;;;;42.35;25.38;;;;;;;5.72;100.00;100770.91;4985945;28;20418;-87
2024/03/05 08:46:42;;;;;;;34.67;21.48;;;;;;;5.63;100.00;100772.53;4965658;28;20038;-86
2024/03/05 08:49:12;;;;;;;34.65;21.77;;;;;;;5.56;100.00;100773.28;4988389;28;20189;-85
2024/03/05 08:51:45;;;;;;;34.38;22.73;;;;;;;5.66;100.00;100774.31;4989851;28;20052;-83
2024/03/05 08:54:12;;;;;;;36.53;21.98;;;;;;;5.58;100.00;100784.59;5000575;28;20037;-86
2024/03/05 08:56:44;;;;;;;38.28;22.77;;;;;;;5.67;100.00;100777.75;4985281;28;20062;-88
2024/03/05 08:59:11;;;;;;;31.00;22.13;;;;;;;5.54;100.00;100782.81;4972621;28;20050;-86
2024/03/05 09:01:42;;;;;;;41.53;23.25;;;;;;;5.57;100.00;100788.03;4971263;28;20597;-88
2024/03/05 09:04:09;;;;;;;43.55;23.40;;;;;;;5.49;100.00;100789.66;4986387;28;20046;-88
2024/03/05 09:06:40;;;;;;;38.05;21.65;;;;;;;5.59;100.00;100788.94;4973092;28;20037;-85
2024/03/05 09:09:13;;;;;;;38.75;21.95;;;;;;;5.56;100.00;100791.47;4997607;28;20046;-84
2024/03/05 09:11:43;;;;;;;43.38;22.80;;;;;;;5.56;100.00;100799.25;4994942;28;20053;-85
2024/03/05 09:14:12;;;;;;;39.40;21.23;;;;;;;5.66;100.00;100787.28;4986602;28;20043;-84
2024/03/05 09:16:40;;;;;;;39.05;21.27;;;;;;;5.73;100.00;100789.09;4983512;28;20403;-86
2024/03/05 09:19:07;;;;;;;38.05;22.20;;;;;;;5.72;100.00;100794.28;4983043;28;20574;-84
2024/03/05 09:21:37;;;;;;;40.53;22.98;;;;;;;5.70;100.00;100796.88;4990461;28;20490;-88
2024/03/05 09:24:10;;;;;;;36.63;20.45;;;;;;;5.64;100.00;100796.78;5001490;28;20070;-86
2024/03/05 09:26:40;;;;;;;35.95;22.08;;;;;;;5.66;100.00;100796.78;4986784;28;20058;-85
2024/03/05 09:29:07;;;;;;;39.63;21.63;;;;;;;5.73;100.00;100799.50;4986551;28;20038;-88
2024/03/05 09:31:34;;;;;;;41.72;21.77;;;;;;;5.69;100.00;100795.13;4985853;28;20050;-86
2024/03/05 09:34:01;;;;;;;30.25;20.83;;;;;;;5.74;100.00;100798.66;5001949;28;20041;-88
2024/03/05 09:36:30;;;;;;;48.67;24.55;;;;;;;5.70;100.00;100798.59;4986649;28;20212;-85
2024/03/05 09:38:59;;;;;;;36.33;20.42;;;;;;;5.86;100.00;100797.94;5008160;28;20077;-87
2024/03/05 09:41:27;;;;;;;35.83;20.35;;;;;;;5.78;100.00;100795.22;5003339;28;20044;-86
2024/03/05 09:43:54;;;;;;;31.67;19.67;;;;;;;5.89;100.00;100792.78;4989352;28;20559;-87
2024/03/05 09:46:21;;;;;;;39.42;20.55;;;;;;;5.78;100.00;100791.78;4986163;28;20053;-83
2024/03/05 09:48:49;;;;;;;39.45;23.08;;;;;;;5.75;100.00;100792.59;4987763;28;20535;-87
2024/03/05 09:51:17;;;;;;;33.92;19.92;;;;;;;5.83;100.00;100797.91;4992450;28;20533;-84
2024/03/05 09:53:46;;;;;;;31.50;21.10;;;;;;;5.73;100.00;100796.91;4988515;28;20077;-86
2024/03/05 09:56:17;;;;;;;34.58;21.20;;;;;;;5.82;100.00;100798.75;4978468;28;20081;-86
2024/03/05 09:58:47;;;;;;;33.83;19.77;;;;;;;5.93;100.00;100801.47;4996445;28;20485;-86
2024/03/05 10:01:17;;;;;;;34.25;21.48;;;;;;;5.98;100.00;100802.44;4963406;28;20168;-87
2024/03/05 10:03:49;;;;;;;31.13;19.35;;;;;;;6.03;100.00;100805.09;4965011;28;20038;-87
2024/03/05 10:06:17;;;;;;;31.13;19.52;;;;;;;6.06;100.00;100802.53;4980197;28;20138;-87
2024/03/05 10:08:50;;;;;;;34.85;20.33;;;;;;;6.05;100.00;100808.56;4982927;28;20085;-87
2024/03/05 10:11:19;;;;;;;27.73;18.33;;;;;;;6.10;100.00;100810.41;4983279;28;20050;-85
2024/03/05 10:13:50;;;;;;;36.92;19.77;;;;;;;6.08;100.00;100806.88;4981041;28;20034;-86
2024/03/05 10:16:25;;;;;;;32.35;19.95;;;;;;;6.04;100.00;100819.84;4984441;28;20065;-85
2024/03/05 10:18:54;;;;;;;34.80;19.33;;;;;;;6.09;100.00;100815.59;4984191;28;20042;-87
2024/03/05 10:21:24;;;;;;;36.38;20.58;;;;;;;6.20;100.00;100815.69;4967411;28;20049;-87
2024/03/05 10:23:59;;;;;;;36.40;20.02;;;;;;;6.10;100.00;100806.91;4985707;28;20061;-87
2024/03/05 10:29:16;;;;;;;44.22;21.42;;;;;;;6.10;100.00;100813.00;5263783;22;20058;-85
2024/03/05 10:31:52;;;;;;;34.65;19.85;;;;;;;6.12;100.00;100820.81;5006360;28;20026;-85
2024/03/05 10:34:27;;;;;;;36.20;22.52;;;;;;;6.13;100.00;100823.41;4974479;28;20030;-85
2024/03/05 10:37:07;;;;;;;36.15;19.55;;;;;;;6.07;100.00;100820.72;4997497;28;20042;-85
2024/03/05 10:39:36;;;;;;;37.60;22.85;;;;;;;5.99;100.00;100824.97;4976750;28;20096;-85
2024/03/05 10:42:06;;;;;;;37.85;20.15;;;;;;;6.08;100.00;100824.22;5006044;28;20655;-86
2024/03/05 10:44:36;;;;;;;33.40;18.13;;;;;;;6.12;100.00;100823.41;5008978;28;20056;-88
2024/03/05 10:47:17;;;;;;;40.97;20.13;;;;;;;6.10;100.00;100830.28;5014782;28;20622;-84
2024/03/05 10:49:49;;;;;;;33.67;19.77;;;;;;;6.03;100.00;100825.91;5018992;28;20088;-84
2024/03/05 10:52:21;;;;;;;42.95;21.02;;;;;;;5.96;100.00;100819.72;4983226;28;20025;-85
2024/03/05 10:54:51;;;;;;;42.45;22.55;;;;;;;5.97;100.00;100826.63;5014733;28;20044;-86
2024/03/05 10:57:18;;;;;;;36.10;19.20;;;;;;;5.85;100.00;100829.09;5005746;28;20056;-86
2024/03/05 10:59:52;;;;;;;38.33;20.75;;;;;;;5.89;100.00;100836.06;5020139;28;20056;-85
2024/03/05 11:02:27;;;;;;;33.78;19.00;;;;;;;5.90;100.00;100833.47;5004042;28;20041;-86
2024/03/05 11:05:01;;;;;;;34.40;18.30;;;;;;;5.93;100.00;100836.13;4984263;28;20555;-86
2024/03/05 11:07:30;;;;;;;40.85;20.20;;;;;;;5.96;100.00;100836.16;4988153;28;20419;-86
2024/03/05 11:09:59;;;;;;;34.28;18.13;;;;;;;5.94;100.00;100839.59;5000328;28;20056;-87
2024/03/05 11:12:30;;;;;;;36.75;18.95;;;;;;;5.95;100.00;100841.34;5004825;28;20093;-87
2024/03/05 11:15:12;;;;;;;33.05;18.20;;;;;;;5.97;100.00;100832.72;4991572;28;20552;-86
2024/03/05 11:17:48;;;;;;;35.75;19.17;;;;;;;6.01;100.00;100833.69;5019515;28;20042;-85
2024/03/05 11:20:42;;;;;;;30.77;16.83;;;;;;;5.95;100.00;100834.41;4985795;28;20087;-86
2024/03/05 11:23:20;;;;;;;28.98;18.30;;;;;;;6.03;100.00;100836.28;5000841;28;20022;-86
2024/03/05 11:25:52;;;;;;;33.03;17.55;;;;;;;5.94;100.00;100837.91;5006906;28;20201;-85
2024/03/05 11:31:35;;;;;;;34.53;17.70;;;;;;;6.01;100.00;100835.38;5025503;28;20029;-86
2024/03/05 11:34:35;;;;;;;34.70;19.77;;;;;;;6.09;100.00;100832.03;5007499;28;20073;-86
2024/03/05 11:37:15;;;;;;;32.67;18.58;;;;;;;6.06;100.00;100833.72;4990478;28;20053;-86
2024/03/05 11:39:46;;;;;;;43.20;19.77;;;;;;;6.16;100.00;100832.13;5005793;28;20746;-85
2024/03/05 11:42:18;;;;;;;31.15;18.67;;;;;;;6.22;100.00;100839.97;5017704;28;20033;-87
2024/03/05 11:44:49;;;;;;;28.35;17.85;;;;;;;6.20;100.00;100839.94;4988389;28;20117;-85
2024/03/05 11:47:24;;;;;;;32.85;17.38;;;;;;;6.29;100.00;100832.25;5015451;28;20049;-86
2024/03/05 11:49:54;;;;;;;30.90;16.58;;;;;;;6.38;100.00;100839.28;4996280;28;20077;-86
2024/03/05 11:52:22;;;;;;;32.13;18.33;;;;;;;6.42;100.00;100841.06;5003388;28;20501;-86
2024/03/05 11:55:05;;;;;;;27.45;16.75;;;;;;;6.33;100.00;100837.50;5001084;28;20065;-84
2024/03/05 11:57:34;;;;;;;29.80;17.23;;;;;;;6.03;100.00;100844.09;5016255;28;20052;-86
2024/03/05 12:00:01;;;;;;;33.28;16.85;;;;;;;6.05;100.00;100847.56;4985859;28;20038;-87
2024/03/05 12:02:27;;;;;;;26.13;16.15;;;;;;;6.08;100.00;100837.22;4994071;28;20086;-85
2024/03/05 12:05:00;;;;;;;26.42;16.60;;;;;;;6.01;100.00;100841.47;5008105;28;20049;-86
2024/03/05 12:07:26;;;;;;;27.52;17.08;;;;;;;6.05;100.00;100847.56;4992351;28;20050;-86